Bow Compass — LACQ8 — position and weather

sailwx.info

Track history (hours):
 
Tides and Currents Weather Stations Pressure Air Temp Water Temp Dewpoint Dewpoint Depression Visibility Wind Speed Wind Dir Waves Ship Positions

Bow Compass

Last reported at 2017-Nov-23 03:57 UTC. Time now 2017-Nov-23 04:02 UTC.
Position N 43°54' W 008°14'.

Length 170 m; draft 8.7 m.

Type: Tanker. MMSI: 257163269.

Date/timePositionNaut miles runAvg speedWind from/ knotsBaromVisibWave heightAir tempDewpointWater temp
2017-Nov-23 03:57N 43°54' W 008°14'510.3
2017-Nov-23 03:30N 43°56' W 008°08'11 9.9
2017-Nov-23 02:25N 43°58' W 007°53'410.3
2017-Nov-23 02:00N 43°59' W 007°47'510.5
2017-Nov-23 01:30N 43°60' W 007°40'510.3
2017-Nov-23 01:00N 43°59' W 007°33'510.5
2017-Nov-23 00:30N 43°59' W 007°26'510.3
2017-Nov-23 00:00N 43°58' W 007°19'5611.8
2017-Nov-22 19:17N 43°51' W 006°02'  
2017-Nov-20 00:24N 50°09' W 002°02'715.0
2017-Nov-19 23:57N 50°10' W 001°52'614.3
2017-Nov-19 23:31N 50°12' W 001°42'713.6
2017-Nov-19 23:00N 50°14' W 001°32'612.8
2017-Nov-19 22:30N 50°16' W 001°22'3912.0
2017-Nov-19 19:13N 50°26' W 000°23'313.6
2017-Nov-19 19:00N 50°26' W 000°18'714.3
2017-Nov-19 18:29N 50°28' W 000°07'715.0
2017-Nov-19 18:00N 50°30' E 000°04'1115.8
2017-Nov-19 17:20N 50°33' E 000°20'716.1
2017-Nov-19 16:55N 50°35' E 000°30'715.9
2017-Nov-19 16:30N 50°39' E 000°38'815.8
2017-Nov-19 16:00N 50°42' E 000°50'2214.8
2017-Nov-19 14:33N 50°55' E 001°17'113.8
2017-Nov-19 14:29N 50°55' E 001°18'613.3
2017-Nov-19 14:00N 51°00' E 001°26'612.9
2017-Nov-19 13:30N 51°05' E 001°32'612.2
2017-Nov-19 13:00N 51°09' E 001°39'612.4
2017-Nov-19 12:30N 51°13' E 001°46'713.3
2017-Nov-19 12:00N 51°19' E 001°51'714.3
2017-Nov-19 11:31N 51°26' E 001°55'714.8
2017-Nov-19 11:01N 51°32' E 002°03'915.5
2017-Nov-19 10:27N 51°38' E 002°12'5713.1
2017-Nov-19 06:06N 52°03' E 003°35'212.8
2017-Nov-19 05:57N 52°03' E 003°38'512.2
2017-Nov-19 05:31N 52°02' E 003°47'3 6.1
2017-Nov-19 05:00N 52°01' E 003°51'2 3.5
2017-Nov-19 04:31N 52°02' E 003°54'2 4.5
2017-Nov-19 04:00N 52°02' E 003°57'0 0.9
2017-Nov-19 03:31N 52°02' E 003°57'3 6.8
2017-Nov-19 03:00N 52°00' E 004°01'510.2
2017-Nov-19 02:31N 51°58' E 004°09'4 8.9
2017-Nov-19 02:01N 51°55' E 004°14'3 6.6
2017-Nov-19 01:31N 51°53' E 004°18'0 0.4
2017-Nov-19 00:59N 51°53' E 004°18'0 0.0
2017-Nov-19 00:29N 51°53' E 004°18'0 0.0
2017-Nov-18 23:59N 51°53' E 004°18'0 0.0
2017-Nov-18 23:29N 51°53' E 004°18'0 0.0
2017-Nov-18 22:59N 51°53' E 004°18'0 0.0
2017-Nov-18 22:29N 51°53' E 004°18'0 0.0
2017-Nov-18 21:59N 51°53' E 004°18'0 0.0
2017-Nov-18 21:29N 51°53' E 004°18'0 0.0
2017-Nov-18 20:59N 51°53' E 004°18'0 0.0
2017-Nov-18 20:29N 51°53' E 004°18'0 0.0
2017-Nov-18 19:59N 51°53' E 004°18'0 0.0
2017-Nov-18 19:29N 51°53' E 004°18'0 0.0
2017-Nov-18 18:59N 51°53' E 004°18'0 0.0
2017-Nov-18 18:29N 51°53' E 004°18'0 0.0
2017-Nov-18 17:59N 51°53' E 004°18'0 0.0
2017-Nov-18 17:29N 51°53' E 004°18'0 0.0
2017-Nov-18 16:59N 51°53' E 004°18'0 0.0
2017-Nov-18 16:29N 51°53' E 004°18'0 0.0
2017-Nov-18 15:56N 51°53' E 004°18'0 0.0
2017-Nov-18 15:29N 51°53' E 004°18'0 0.0
2017-Nov-18 14:59N 51°53' E 004°18'0 0.0
2017-Nov-18 14:29N 51°53' E 004°18'0 0.0
2017-Nov-18 13:59N 51°53' E 004°18'0 0.0
2017-Nov-18 13:29N 51°53' E 004°18'0 0.0
2017-Nov-18 12:59N 51°53' E 004°18'0 0.0
2017-Nov-18 12:29N 51°53' E 004°18'0 0.0
2017-Nov-18 11:59N 51°53' E 004°18'0 0.0
2017-Nov-18 11:29N 51°53' E 004°18'0 0.0
2017-Nov-18 10:59N 51°53' E 004°18'0 0.0
2017-Nov-18 10:29N 51°53' E 004°18'0 0.0
2017-Nov-18 09:59N 51°53' E 004°18'0 0.0
2017-Nov-18 09:29N 51°53' E 004°18'0 0.0
2017-Nov-18 08:59N 51°53' E 004°18'0 0.0
2017-Nov-18 08:29N 51°53' E 004°18'0 0.0
2017-Nov-18 07:59N 51°53' E 004°18'0 0.0
2017-Nov-18 07:29N 51°53' E 004°18'0 0.0
2017-Nov-18 06:59N 51°53' E 004°18'0 0.0
2017-Nov-18 06:26N 51°53' E 004°18'0 0.0
2017-Nov-18 05:59N 51°53' E 004°18'0 0.0
2017-Nov-18 05:29N 51°53' E 004°18'0 0.0
2017-Nov-18 04:56N 51°53' E 004°18'0 0.0
2017-Nov-18 04:29N 51°53' E 004°18'0 0.0
2017-Nov-18 03:59N 51°53' E 004°18'0 0.0
2017-Nov-18 03:29N 51°53' E 004°18'0 0.0
2017-Nov-18 02:59N 51°53' E 004°18'0 0.0
2017-Nov-18 02:29N 51°53' E 004°18'0 0.0
2017-Nov-18 01:59N 51°53' E 004°18'0 0.0
2017-Nov-18 01:29N 51°53' E 004°18'0 0.0
2017-Nov-18 00:59N 51°53' E 004°18'0 0.0
2017-Nov-18 00:26N 51°53' E 004°18'0 0.0
2017-Nov-17 23:59N 51°53' E 004°18'0 0.0
2017-Nov-17 23:26N 51°53' E 004°18'0 0.0
2017-Nov-17 22:59N 51°53' E 004°18'0 0.0
2017-Nov-17 22:29N 51°53' E 004°18'0 0.0
2017-Nov-17 21:59N 51°53' E 004°18'0 0.0
2017-Nov-17 21:29N 51°53' E 004°18'0 0.0
2017-Nov-17 20:59N 51°53' E 004°18'0 0.0
2017-Nov-17 20:29N 51°53' E 004°18'0 0.0
2017-Nov-17 19:59N 51°53' E 004°18'0 0.0
2017-Nov-17 19:29N 51°53' E 004°18'0 0.0
2017-Nov-17 18:59N 51°53' E 004°18'0 0.0
2017-Nov-17 18:29N 51°53' E 004°18'0 0.0
2017-Nov-17 17:59N 51°53' E 004°18'0 0.0
2017-Nov-17 17:29N 51°53' E 004°18'0 0.0
2017-Nov-17 16:56N 51°53' E 004°18'0 0.0
2017-Nov-17 16:29N 51°53' E 004°18'0 0.0
2017-Nov-17 15:59N 51°53' E 004°18'0 0.0
2017-Nov-17 15:26N 51°53' E 004°18'0 0.0
2017-Nov-17 14:59N 51°53' E 004°18'0 0.0
2017-Nov-17 14:29N 51°53' E 004°18'0 0.0
2017-Nov-17 13:59N 51°53' E 004°18'0 0.0
2017-Nov-17 13:26N 51°53' E 004°18'0 0.0
2017-Nov-17 12:59N 51°53' E 004°18'0 0.0
2017-Nov-17 12:26N 51°53' E 004°18'0 0.0
2017-Nov-17 11:56N 51°53' E 004°18'0 0.0
2017-Nov-17 11:29N 51°53' E 004°18'0 0.0
2017-Nov-17 10:56N 51°53' E 004°18'0 0.0
2017-Nov-17 10:29N 51°53' E 004°18'0 0.0
2017-Nov-17 09:56N 51°53' E 004°18'0 0.0
2017-Nov-17 09:29N 51°53' E 004°18'0 0.0
2017-Nov-17 08:59N 51°53' E 004°18'0 0.0
2017-Nov-17 08:29N 51°53' E 004°18'0 0.0
2017-Nov-17 07:59N 51°53' E 004°18'0 0.0
2017-Nov-17 07:29N 51°53' E 004°18'0 0.0
2017-Nov-17 06:59N 51°53' E 004°18'0 0.0
2017-Nov-17 06:29N 51°53' E 004°18'0 0.0
2017-Nov-17 05:59N 51°53' E 004°18'0 0.0
2017-Nov-17 05:29N 51°53' E 004°18'0 0.0
2017-Nov-17 04:59N 51°53' E 004°18'0 0.0
2017-Nov-17 04:29N 51°53' E 004°18'0 0.0
2017-Nov-17 03:59N 51°53' E 004°18'0 0.0
2017-Nov-17 03:29N 51°53' E 004°18'0 0.0
2017-Nov-17 02:59N 51°53' E 004°18'0 0.0
2017-Nov-17 02:29N 51°53' E 004°18'0 0.0
2017-Nov-17 01:59N 51°53' E 004°18'0 0.0
2017-Nov-17 01:29N 51°53' E 004°18'0 0.0
2017-Nov-17 00:59N 51°53' E 004°18'0 0.0
2017-Nov-17 00:29N 51°53' E 004°18'0 0.0
2017-Nov-16 23:59N 51°53' E 004°18'0 0.0
2017-Nov-16 23:29N 51°53' E 004°18'0 0.0
2017-Nov-16 22:59N 51°53' E 004°18'0 0.0
2017-Nov-16 22:29N 51°53' E 004°18'0 0.0
2017-Nov-16 21:59N 51°53' E 004°18'0 0.0
2017-Nov-16 21:29N 51°53' E 004°18'0 0.0
2017-Nov-16 20:59N 51°53' E 004°18'0 0.0
2017-Nov-16 20:29N 51°53' E 004°18'0 0.0
2017-Nov-16 19:59N 51°53' E 004°18'0 0.0
2017-Nov-16 19:29N 51°53' E 004°18'0 0.0
2017-Nov-16 18:59N 51°53' E 004°18'0 0.0
2017-Nov-16 18:29N 51°53' E 004°18'0 0.0
2017-Nov-16 17:59N 51°53' E 004°18'0 0.0
2017-Nov-16 17:29N 51°53' E 004°18'0 0.0
2017-Nov-16 16:59N 51°53' E 004°18'0 0.0
2017-Nov-16 16:29N 51°53' E 004°18'0 0.0
2017-Nov-16 15:59N 51°53' E 004°18'0 0.0
2017-Nov-16 15:29N 51°53' E 004°18'0 0.0
2017-Nov-16 14:59N 51°53' E 004°18'0 0.0
2017-Nov-16 14:26N 51°53' E 004°18'0 0.0
2017-Nov-16 13:53N 51°53' E 004°18'0 0.0
2017-Nov-16 13:29N 51°53' E 004°18'0 0.0
2017-Nov-16 12:59N 51°53' E 004°18'0 0.0
2017-Nov-16 12:29N 51°53' E 004°18'0 0.0
2017-Nov-16 11:59N 51°53' E 004°18'0 0.0
2017-Nov-16 11:29N 51°53' E 004°18'0 0.0
2017-Nov-16 10:59N 51°53' E 004°18'0 0.0
2017-Nov-16 10:29N 51°53' E 004°18'0 0.0
2017-Nov-16 09:56N 51°53' E 004°18'0 0.8
2017-Nov-16 09:30N 51°53' E 004°18'0 0.2
2017-Nov-16 08:58N 51°53' E 004°18'0 0.0
2017-Nov-16 08:25N 51°53' E 004°18'0 0.0
2017-Nov-16 07:58N 51°53' E 004°18'0 0.0
2017-Nov-16 07:28N 51°53' E 004°18'0 0.0
2017-Nov-16 06:58N 51°53' E 004°18'0 0.0
2017-Nov-16 06:28N 51°53' E 004°18'0 0.0
2017-Nov-16 05:58N 51°53' E 004°18'0 0.0
2017-Nov-16 05:25N 51°53' E 004°18'0 0.0
2017-Nov-16 04:58N 51°53' E 004°18'0 0.0
2017-Nov-16 04:28N 51°53' E 004°18'0 0.0
2017-Nov-16 03:58N 51°53' E 004°18'0 0.0
2017-Nov-16 03:28N 51°53' E 004°18'0 0.0
2017-Nov-16 02:58N 51°53' E 004°18'0 0.0
2017-Nov-16 02:28N 51°53' E 004°18'0 0.0
2017-Nov-16 01:58N 51°53' E 004°18'0 0.0
2017-Nov-16 01:28N 51°53' E 004°18'0 0.0
2017-Nov-16 00:58N 51°53' E 004°18'0 0.0
2017-Nov-16 00:28N 51°53' E 004°18'0 0.0
2017-Nov-15 23:58N 51°53' E 004°18'0 0.0
2017-Nov-15 23:28N 51°53' E 004°18'0 0.0
2017-Nov-15 22:58N 51°53' E 004°18'0 0.0
2017-Nov-15 22:28N 51°53' E 004°18'0 0.0
2017-Nov-15 21:58N 51°53' E 004°18'0 0.0
2017-Nov-15 21:28N 51°53' E 004°18'0 0.0
2017-Nov-15 20:58N 51°53' E 004°18'0 0.0
2017-Nov-15 20:28N 51°53' E 004°18'0 0.0
2017-Nov-15 19:58N 51°53' E 004°18'0 0.0
2017-Nov-15 19:28N 51°53' E 004°18'0 0.0
2017-Nov-15 18:58N 51°53' E 004°18'0 0.0
2017-Nov-15 18:28N 51°53' E 004°18'0 0.0
2017-Nov-15 17:58N 51°53' E 004°18'0 0.0
2017-Nov-15 17:28N 51°53' E 004°18'0 0.0
2017-Nov-15 16:58N 51°53' E 004°18'0 0.0
2017-Nov-15 16:28N 51°53' E 004°18'0 0.0
2017-Nov-15 15:58N 51°53' E 004°18'0 0.0
2017-Nov-15 15:28N 51°53' E 004°18'0 0.0
2017-Nov-15 14:58N 51°53' E 004°18'0 0.0
2017-Nov-15 14:28N 51°53' E 004°18'0 0.0
2017-Nov-15 13:58N 51°53' E 004°18'0 0.0
2017-Nov-15 13:28N 51°53' E 004°18'0 0.0
2017-Nov-15 12:58N 51°53' E 004°18'0 0.0
2017-Nov-15 12:28N 51°53' E 004°18'0 0.0
2017-Nov-15 11:58N 51°53' E 004°18'0 0.0
2017-Nov-15 11:28N 51°53' E 004°18'0 0.0
2017-Nov-15 10:58N 51°53' E 004°18'0 0.0
2017-Nov-15 10:28N 51°53' E 004°18'0 0.0
2017-Nov-15 09:58N 51°53' E 004°18'0 0.0
2017-Nov-15 09:28N 51°53' E 004°18'0 0.0
2017-Nov-15 08:58N 51°53' E 004°18'0 0.0
2017-Nov-15 08:28N 51°53' E 004°18'0 0.0
2017-Nov-15 07:58N 51°53' E 004°18'0 0.0
2017-Nov-15 07:28N 51°53' E 004°18'0 0.0
2017-Nov-15 06:58N 51°53' E 004°18'0 0.0
2017-Nov-15 06:28N 51°53' E 004°18'0 0.0
2017-Nov-15 05:55N 51°53' E 004°18'0 0.0
2017-Nov-15 05:22N 51°53' E 004°18'0 0.0
2017-Nov-15 04:58N 51°53' E 004°18'0 0.0
2017-Nov-15 04:28N 51°53' E 004°18'0 0.0
2017-Nov-15 03:58N 51°53' E 004°18'0 0.0
2017-Nov-15 03:28N 51°53' E 004°18'0 0.0
2017-Nov-15 02:58N 51°53' E 004°18'0 0.0
2017-Nov-15 02:28N 51°53' E 004°18'0 0.0
2017-Nov-15 01:58N 51°53' E 004°18'0 0.0
2017-Nov-15 01:28N 51°53' E 004°18'0 0.0
2017-Nov-15 00:58N 51°53' E 004°18'0 0.0
2017-Nov-15 00:25N 51°53' E 004°18'0 0.0
2017-Nov-14 23:58N 51°53' E 004°18'0 0.0
2017-Nov-14 23:28N 51°53' E 004°18'0 0.0
2017-Nov-14 22:58N 51°53' E 004°18'0 0.0
2017-Nov-14 22:28N 51°53' E 004°18'0 0.0
2017-Nov-14 21:58N 51°53' E 004°18'0 0.0
2017-Nov-14 21:28N 51°53' E 004°18'0 0.0
2017-Nov-14 20:58N 51°53' E 004°18'0 0.0
2017-Nov-14 20:28N 51°53' E 004°18'0 0.0
2017-Nov-14 19:58N 51°53' E 004°18'0 0.0
2017-Nov-14 19:28N 51°53' E 004°18'0 0.0
2017-Nov-14 18:58N 51°53' E 004°18'0 0.0
2017-Nov-14 18:28N 51°53' E 004°18'0 0.0
2017-Nov-14 17:58N 51°53' E 004°18'0 0.0
2017-Nov-14 17:28N 51°53' E 004°18'0 0.0
2017-Nov-14 16:55N 51°53' E 004°18'0 0.0
2017-Nov-14 16:28N 51°53' E 004°18'0 0.0
2017-Nov-14 15:58N 51°53' E 004°18'0 0.0
2017-Nov-14 15:28N 51°53' E 004°18'0 0.0
2017-Nov-14 14:58N 51°53' E 004°18'0 0.0
2017-Nov-14 14:28N 51°53' E 004°18'0 0.0
2017-Nov-14 13:58N 51°53' E 004°18'0 0.0
2017-Nov-14 13:28N 51°53' E 004°18'0 0.0
2017-Nov-14 12:58N 51°53' E 004°18'0 0.0
2017-Nov-14 12:28N 51°53' E 004°18'0 0.0
2017-Nov-14 11:58N 51°53' E 004°18'0 0.0
2017-Nov-14 11:28N 51°53' E 004°18'0 0.0
2017-Nov-14 10:58N 51°53' E 004°18'0 0.0
2017-Nov-14 10:28N 51°53' E 004°18'0 0.0
2017-Nov-14 09:58N 51°53' E 004°18'0 0.0
2017-Nov-14 09:28N 51°53' E 004°18'0 0.0
2017-Nov-14 08:58N 51°53' E 004°18'0 0.0
2017-Nov-14 08:28N 51°53' E 004°18'0 0.0
2017-Nov-14 07:55N 51°53' E 004°18'0 0.0
2017-Nov-14 07:28N 51°53' E 004°18'0 0.0
2017-Nov-14 06:55N 51°53' E 004°18'0 0.0
2017-Nov-14 06:28N 51°53' E 004°18'0 0.0
2017-Nov-14 06:00N 51°53' E 004°18'0 0.0
2017-Nov-14 05:31N 51°53' E 004°18'1 2.0
2017-Nov-14 05:00N 51°54' E 004°18'3 7.0
2017-Nov-14 04:30N 51°56' E 004°13'5 9.1
2017-Nov-14 04:00N 51°58' E 004°08'510.1
2017-Nov-14 03:30N 51°60' E 003°60'612.7
2017-Nov-14 03:01N 52°02' E 003°50'5 9.2
2017-Nov-14 02:30N 52°04' E 003°43'613.1
2017-Nov-14 02:00N 52°06' E 003°34'714.4
2017-Nov-14 01:30N 52°10' E 003°23'714.3
2017-Nov-14 01:00N 52°15' E 003°15'510.6
2017-Nov-14 00:29N 52°20' E 003°13'713.0
2017-Nov-13 23:59N 52°26' E 003°18'612.9
2017-Nov-13 23:29N 52°32' E 003°23'612.7
2017-Nov-13 23:00N 52°36' E 003°29'612.1
2017-Nov-13 22:30N 52°41' E 003°35'612.4
2017-Nov-13 21:59N 52°46' E 003°42'  
Track history (hours):
 
Tides and Currents Weather Stations Pressure Air Temp Water Temp Dewpoint Dewpoint Depression Visibility Wind Speed Wind Dir Waves Ship Positions

Bow Compass

Last reported at 2017-Nov-23 03:57 UTC. Time now 2017-Nov-23 04:02 UTC.
Position N 43°54' W 008°14'.

Length 170 m; draft 8.7 m.

Type: Tanker. MMSI: 257163269.

Date/timePositionNaut miles runAvg speedWind from/ knotsBaromVisibWave heightAir tempDewpointWater temp
2017-Nov-23 03:57N 43°54' W 008°14'510.3
2017-Nov-23 03:30N 43°56' W 008°08'11 9.9
2017-Nov-23 02:25N 43°58' W 007°53'410.3
2017-Nov-23 02:00N 43°59' W 007°47'510.5
2017-Nov-23 01:30N 43°60' W 007°40'510.3
2017-Nov-23 01:00N 43°59' W 007°33'510.5
2017-Nov-23 00:30N 43°59' W 007°26'510.3
2017-Nov-23 00:00N 43°58' W 007°19'5611.8
2017-Nov-22 19:17N 43°51' W 006°02'  
2017-Nov-20 00:24N 50°09' W 002°02'715.0
2017-Nov-19 23:57N 50°10' W 001°52'614.3
2017-Nov-19 23:31N 50°12' W 001°42'713.6
2017-Nov-19 23:00N 50°14' W 001°32'612.8
2017-Nov-19 22:30N 50°16' W 001°22'3912.0
2017-Nov-19 19:13N 50°26' W 000°23'313.6
2017-Nov-19 19:00N 50°26' W 000°18'714.3
2017-Nov-19 18:29N 50°28' W 000°07'715.0
2017-Nov-19 18:00N 50°30' E 000°04'1115.8
2017-Nov-19 17:20N 50°33' E 000°20'716.1
2017-Nov-19 16:55N 50°35' E 000°30'715.9
2017-Nov-19 16:30N 50°39' E 000°38'815.8
2017-Nov-19 16:00N 50°42' E 000°50'2214.8
2017-Nov-19 14:33N 50°55' E 001°17'113.8
2017-Nov-19 14:29N 50°55' E 001°18'613.3
2017-Nov-19 14:00N 51°00' E 001°26'612.9
2017-Nov-19 13:30N 51°05' E 001°32'612.2
2017-Nov-19 13:00N 51°09' E 001°39'612.4
2017-Nov-19 12:30N 51°13' E 001°46'713.3
2017-Nov-19 12:00N 51°19' E 001°51'714.3
2017-Nov-19 11:31N 51°26' E 001°55'714.8
2017-Nov-19 11:01N 51°32' E 002°03'915.5
2017-Nov-19 10:27N 51°38' E 002°12'5713.1
2017-Nov-19 06:06N 52°03' E 003°35'212.8
2017-Nov-19 05:57N 52°03' E 003°38'512.2
2017-Nov-19 05:31N 52°02' E 003°47'3 6.1
2017-Nov-19 05:00N 52°01' E 003°51'2 3.5
2017-Nov-19 04:31N 52°02' E 003°54'2 4.5
2017-Nov-19 04:00N 52°02' E 003°57'0 0.9
2017-Nov-19 03:31N 52°02' E 003°57'3 6.8
2017-Nov-19 03:00N 52°00' E 004°01'510.2
2017-Nov-19 02:31N 51°58' E 004°09'4 8.9
2017-Nov-19 02:01N 51°55' E 004°14'3 6.6
2017-Nov-19 01:31N 51°53' E 004°18'0 0.4
2017-Nov-19 00:59N 51°53' E 004°18'0 0.0
2017-Nov-19 00:29N 51°53' E 004°18'0 0.0
2017-Nov-18 23:59N 51°53' E 004°18'0 0.0
2017-Nov-18 23:29N 51°53' E 004°18'0 0.0
2017-Nov-18 22:59N 51°53' E 004°18'0 0.0
2017-Nov-18 22:29N 51°53' E 004°18'0 0.0
2017-Nov-18 21:59N 51°53' E 004°18'0 0.0
2017-Nov-18 21:29N 51°53' E 004°18'0 0.0
2017-Nov-18 20:59N 51°53' E 004°18'0 0.0
2017-Nov-18 20:29N 51°53' E 004°18'0 0.0
2017-Nov-18 19:59N 51°53' E 004°18'0 0.0
2017-Nov-18 19:29N 51°53' E 004°18'0 0.0
2017-Nov-18 18:59N 51°53' E 004°18'0 0.0
2017-Nov-18 18:29N 51°53' E 004°18'0 0.0
2017-Nov-18 17:59N 51°53' E 004°18'0 0.0
2017-Nov-18 17:29N 51°53' E 004°18'0 0.0
2017-Nov-18 16:59N 51°53' E 004°18'0 0.0
2017-Nov-18 16:29N 51°53' E 004°18'0 0.0
2017-Nov-18 15:56N 51°53' E 004°18'0 0.0
2017-Nov-18 15:29N 51°53' E 004°18'0 0.0
2017-Nov-18 14:59N 51°53' E 004°18'0 0.0
2017-Nov-18 14:29N 51°53' E 004°18'0 0.0
2017-Nov-18 13:59N 51°53' E 004°18'0 0.0
2017-Nov-18 13:29N 51°53' E 004°18'0 0.0
2017-Nov-18 12:59N 51°53' E 004°18'0 0.0
2017-Nov-18 12:29N 51°53' E 004°18'0 0.0
2017-Nov-18 11:59N 51°53' E 004°18'0 0.0
2017-Nov-18 11:29N 51°53' E 004°18'0 0.0
2017-Nov-18 10:59N 51°53' E 004°18'0 0.0
2017-Nov-18 10:29N 51°53' E 004°18'0 0.0
2017-Nov-18 09:59N 51°53' E 004°18'0 0.0
2017-Nov-18 09:29N 51°53' E 004°18'0 0.0
2017-Nov-18 08:59N 51°53' E 004°18'0 0.0
2017-Nov-18 08:29N 51°53' E 004°18'0 0.0
2017-Nov-18 07:59N 51°53' E 004°18'0 0.0
2017-Nov-18 07:29N 51°53' E 004°18'0 0.0
2017-Nov-18 06:59N 51°53' E 004°18'0 0.0
2017-Nov-18 06:26N 51°53' E 004°18'0 0.0
2017-Nov-18 05:59N 51°53' E 004°18'0 0.0
2017-Nov-18 05:29N 51°53' E 004°18'0 0.0
2017-Nov-18 04:56N 51°53' E 004°18'0 0.0
2017-Nov-18 04:29N 51°53' E 004°18'0 0.0
2017-Nov-18 03:59N 51°53' E 004°18'0 0.0
2017-Nov-18 03:29N 51°53' E 004°18'0 0.0
2017-Nov-18 02:59N 51°53' E 004°18'0 0.0
2017-Nov-18 02:29N 51°53' E 004°18'0 0.0
2017-Nov-18 01:59N 51°53' E 004°18'0 0.0
2017-Nov-18 01:29N 51°53' E 004°18'0 0.0
2017-Nov-18 00:59N 51°53' E 004°18'0 0.0
2017-Nov-18 00:26N 51°53' E 004°18'0 0.0
2017-Nov-17 23:59N 51°53' E 004°18'0 0.0
2017-Nov-17 23:26N 51°53' E 004°18'0 0.0
2017-Nov-17 22:59N 51°53' E 004°18'0 0.0
2017-Nov-17 22:29N 51°53' E 004°18'0 0.0
2017-Nov-17 21:59N 51°53' E 004°18'0 0.0
2017-Nov-17 21:29N 51°53' E 004°18'0 0.0
2017-Nov-17 20:59N 51°53' E 004°18'0 0.0
2017-Nov-17 20:29N 51°53' E 004°18'0 0.0
2017-Nov-17 19:59N 51°53' E 004°18'0 0.0
2017-Nov-17 19:29N 51°53' E 004°18'0 0.0
2017-Nov-17 18:59N 51°53' E 004°18'0 0.0
2017-Nov-17 18:29N 51°53' E 004°18'0 0.0
2017-Nov-17 17:59N 51°53' E 004°18'0 0.0
2017-Nov-17 17:29N 51°53' E 004°18'0 0.0
2017-Nov-17 16:56N 51°53' E 004°18'0 0.0
2017-Nov-17 16:29N 51°53' E 004°18'0 0.0
2017-Nov-17 15:59N 51°53' E 004°18'0 0.0
2017-Nov-17 15:26N 51°53' E 004°18'0 0.0
2017-Nov-17 14:59N 51°53' E 004°18'0 0.0
2017-Nov-17 14:29N 51°53' E 004°18'0 0.0
2017-Nov-17 13:59N 51°53' E 004°18'0 0.0
2017-Nov-17 13:26N 51°53' E 004°18'0 0.0
2017-Nov-17 12:59N 51°53' E 004°18'0 0.0
2017-Nov-17 12:26N 51°53' E 004°18'0 0.0
2017-Nov-17 11:56N 51°53' E 004°18'0 0.0
2017-Nov-17 11:29N 51°53' E 004°18'0 0.0
2017-Nov-17 10:56N 51°53' E 004°18'0 0.0
2017-Nov-17 10:29N 51°53' E 004°18'0 0.0
2017-Nov-17 09:56N 51°53' E 004°18'0 0.0
2017-Nov-17 09:29N 51°53' E 004°18'0 0.0
2017-Nov-17 08:59N 51°53' E 004°18'0 0.0
2017-Nov-17 08:29N 51°53' E 004°18'0 0.0
2017-Nov-17 07:59N 51°53' E 004°18'0 0.0
2017-Nov-17 07:29N 51°53' E 004°18'0 0.0
2017-Nov-17 06:59N 51°53' E 004°18'0 0.0
2017-Nov-17 06:29N 51°53' E 004°18'0 0.0
2017-Nov-17 05:59N 51°53' E 004°18'0 0.0
2017-Nov-17 05:29N 51°53' E 004°18'0 0.0
2017-Nov-17 04:59N 51°53' E 004°18'0 0.0
2017-Nov-17 04:29N 51°53' E 004°18'0 0.0
2017-Nov-17 03:59N 51°53' E 004°18'0 0.0
2017-Nov-17 03:29N 51°53' E 004°18'0 0.0
2017-Nov-17 02:59N 51°53' E 004°18'0 0.0
2017-Nov-17 02:29N 51°53' E 004°18'0 0.0
2017-Nov-17 01:59N 51°53' E 004°18'0 0.0
2017-Nov-17 01:29N 51°53' E 004°18'0 0.0
2017-Nov-17 00:59N 51°53' E 004°18'0 0.0
2017-Nov-17 00:29N 51°53' E 004°18'0 0.0
2017-Nov-16 23:59N 51°53' E 004°18'0 0.0
2017-Nov-16 23:29N 51°53' E 004°18'0 0.0
2017-Nov-16 22:59N 51°53' E 004°18'0 0.0
2017-Nov-16 22:29N 51°53' E 004°18'0 0.0
2017-Nov-16 21:59N 51°53' E 004°18'0 0.0
2017-Nov-16 21:29N 51°53' E 004°18'0 0.0
2017-Nov-16 20:59N 51°53' E 004°18'0 0.0
2017-Nov-16 20:29N 51°53' E 004°18'0 0.0
2017-Nov-16 19:59N 51°53' E 004°18'0 0.0
2017-Nov-16 19:29N 51°53' E 004°18'0 0.0
2017-Nov-16 18:59N 51°53' E 004°18'0 0.0
2017-Nov-16 18:29N 51°53' E 004°18'0 0.0
2017-Nov-16 17:59N 51°53' E 004°18'0 0.0
2017-Nov-16 17:29N 51°53' E 004°18'0 0.0
2017-Nov-16 16:59N 51°53' E 004°18'0 0.0
2017-Nov-16 16:29N 51°53' E 004°18'0 0.0
2017-Nov-16 15:59N 51°53' E 004°18'0 0.0
2017-Nov-16 15:29N 51°53' E 004°18'0 0.0
2017-Nov-16 14:59N 51°53' E 004°18'0 0.0
2017-Nov-16 14:26N 51°53' E 004°18'0 0.0
2017-Nov-16 13:53N 51°53' E 004°18'0 0.0
2017-Nov-16 13:29N 51°53' E 004°18'0 0.0
2017-Nov-16 12:59N 51°53' E 004°18'0 0.0
2017-Nov-16 12:29N 51°53' E 004°18'0 0.0
2017-Nov-16 11:59N 51°53' E 004°18'0 0.0
2017-Nov-16 11:29N 51°53' E 004°18'0 0.0
2017-Nov-16 10:59N 51°53' E 004°18'0 0.0
2017-Nov-16 10:29N 51°53' E 004°18'0 0.0
2017-Nov-16 09:56N 51°53' E 004°18'0 0.8
2017-Nov-16 09:30N 51°53' E 004°18'0 0.2
2017-Nov-16 08:58N 51°53' E 004°18'0 0.0
2017-Nov-16 08:25N 51°53' E 004°18'0 0.0
2017-Nov-16 07:58N 51°53' E 004°18'0 0.0
2017-Nov-16 07:28N 51°53' E 004°18'0 0.0
2017-Nov-16 06:58N 51°53' E 004°18'0 0.0
2017-Nov-16 06:28N 51°53' E 004°18'0 0.0
2017-Nov-16 05:58N 51°53' E 004°18'0 0.0
2017-Nov-16 05:25N 51°53' E 004°18'0 0.0
2017-Nov-16 04:58N 51°53' E 004°18'0 0.0
2017-Nov-16 04:28N 51°53' E 004°18'0 0.0
2017-Nov-16 03:58N 51°53' E 004°18'0 0.0
2017-Nov-16 03:28N 51°53' E 004°18'0 0.0
2017-Nov-16 02:58N 51°53' E 004°18'0 0.0
2017-Nov-16 02:28N 51°53' E 004°18'0 0.0
2017-Nov-16 01:58N 51°53' E 004°18'0 0.0
2017-Nov-16 01:28N 51°53' E 004°18'0 0.0
2017-Nov-16 00:58N 51°53' E 004°18'0 0.0
2017-Nov-16 00:28N 51°53' E 004°18'0 0.0
2017-Nov-15 23:58N 51°53' E 004°18'0 0.0
2017-Nov-15 23:28N 51°53' E 004°18'0 0.0
2017-Nov-15 22:58N 51°53' E 004°18'0 0.0
2017-Nov-15 22:28N 51°53' E 004°18'0 0.0
2017-Nov-15 21:58N 51°53' E 004°18'0 0.0
2017-Nov-15 21:28N 51°53' E 004°18'0 0.0
2017-Nov-15 20:58N 51°53' E 004°18'0 0.0
2017-Nov-15 20:28N 51°53' E 004°18'0 0.0
2017-Nov-15 19:58N 51°53' E 004°18'0 0.0
2017-Nov-15 19:28N 51°53' E 004°18'0 0.0
2017-Nov-15 18:58N 51°53' E 004°18'0 0.0
2017-Nov-15 18:28N 51°53' E 004°18'0 0.0
2017-Nov-15 17:58N 51°53' E 004°18'0 0.0
2017-Nov-15 17:28N 51°53' E 004°18'0 0.0
2017-Nov-15 16:58N 51°53' E 004°18'0 0.0
2017-Nov-15 16:28N 51°53' E 004°18'0 0.0
2017-Nov-15 15:58N 51°53' E 004°18'0 0.0
2017-Nov-15 15:28N 51°53' E 004°18'0 0.0
2017-Nov-15 14:58N 51°53' E 004°18'0 0.0
2017-Nov-15 14:28N 51°53' E 004°18'0 0.0
2017-Nov-15 13:58N 51°53' E 004°18'0 0.0
2017-Nov-15 13:28N 51°53' E 004°18'0 0.0
2017-Nov-15 12:58N 51°53' E 004°18'0 0.0
2017-Nov-15 12:28N 51°53' E 004°18'0 0.0
2017-Nov-15 11:58N 51°53' E 004°18'0 0.0
2017-Nov-15 11:28N 51°53' E 004°18'0 0.0
2017-Nov-15 10:58N 51°53' E 004°18'0 0.0
2017-Nov-15 10:28N 51°53' E 004°18'0 0.0
2017-Nov-15 09:58N 51°53' E 004°18'0 0.0
2017-Nov-15 09:28N 51°53' E 004°18'0 0.0
2017-Nov-15 08:58N 51°53' E 004°18'0 0.0
2017-Nov-15 08:28N 51°53' E 004°18'0 0.0
2017-Nov-15 07:58N 51°53' E 004°18'0 0.0
2017-Nov-15 07:28N 51°53' E 004°18'0 0.0
2017-Nov-15 06:58N 51°53' E 004°18'0 0.0
2017-Nov-15 06:28N 51°53' E 004°18'0 0.0
2017-Nov-15 05:55N 51°53' E 004°18'0 0.0
2017-Nov-15 05:22N 51°53' E 004°18'0 0.0
2017-Nov-15 04:58N 51°53' E 004°18'0 0.0
2017-Nov-15 04:28N 51°53' E 004°18'0 0.0
2017-Nov-15 03:58N 51°53' E 004°18'0 0.0
2017-Nov-15 03:28N 51°53' E 004°18'0 0.0
2017-Nov-15 02:58N 51°53' E 004°18'0 0.0
2017-Nov-15 02:28N 51°53' E 004°18'0 0.0
2017-Nov-15 01:58N 51°53' E 004°18'0 0.0
2017-Nov-15 01:28N 51°53' E 004°18'0 0.0
2017-Nov-15 00:58N 51°53' E 004°18'0 0.0
2017-Nov-15 00:25N 51°53' E 004°18'0 0.0
2017-Nov-14 23:58N 51°53' E 004°18'0 0.0
2017-Nov-14 23:28N 51°53' E 004°18'0 0.0
2017-Nov-14 22:58N 51°53' E 004°18'0 0.0
2017-Nov-14 22:28N 51°53' E 004°18'0 0.0
2017-Nov-14 21:58N 51°53' E 004°18'0 0.0
2017-Nov-14 21:28N 51°53' E 004°18'0 0.0
2017-Nov-14 20:58N 51°53' E 004°18'0 0.0
2017-Nov-14 20:28N 51°53' E 004°18'0 0.0
2017-Nov-14 19:58N 51°53' E 004°18'0 0.0
2017-Nov-14 19:28N 51°53' E 004°18'0 0.0
2017-Nov-14 18:58N 51°53' E 004°18'0 0.0
2017-Nov-14 18:28N 51°53' E 004°18'0 0.0
2017-Nov-14 17:58N 51°53' E 004°18'0 0.0
2017-Nov-14 17:28N 51°53' E 004°18'0 0.0
2017-Nov-14 16:55N 51°53' E 004°18'0 0.0
2017-Nov-14 16:28N 51°53' E 004°18'0 0.0
2017-Nov-14 15:58N 51°53' E 004°18'0 0.0
2017-Nov-14 15:28N 51°53' E 004°18'0 0.0
2017-Nov-14 14:58N 51°53' E 004°18'0 0.0
2017-Nov-14 14:28N 51°53' E 004°18'0 0.0
2017-Nov-14 13:58N 51°53' E 004°18'0 0.0
2017-Nov-14 13:28N 51°53' E 004°18'0 0.0
2017-Nov-14 12:58N 51°53' E 004°18'0 0.0
2017-Nov-14 12:28N 51°53' E 004°18'0 0.0
2017-Nov-14 11:58N 51°53' E 004°18'0 0.0
2017-Nov-14 11:28N 51°53' E 004°18'0 0.0
2017-Nov-14 10:58N 51°53' E 004°18'0 0.0
2017-Nov-14 10:28N 51°53' E 004°18'0 0.0
2017-Nov-14 09:58N 51°53' E 004°18'0 0.0
2017-Nov-14 09:28N 51°53' E 004°18'0 0.0
2017-Nov-14 08:58N 51°53' E 004°18'0 0.0
2017-Nov-14 08:28N 51°53' E 004°18'0 0.0
2017-Nov-14 07:55N 51°53' E 004°18'0 0.0
2017-Nov-14 07:28N 51°53' E 004°18'0 0.0
2017-Nov-14 06:55N 51°53' E 004°18'0 0.0
2017-Nov-14 06:28N 51°53' E 004°18'0 0.0
2017-Nov-14 06:00N 51°53' E 004°18'0 0.0
2017-Nov-14 05:31N 51°53' E 004°18'1 2.0
2017-Nov-14 05:00N 51°54' E 004°18'3 7.0
2017-Nov-14 04:30N 51°56' E 004°13'5 9.1
2017-Nov-14 04:00N 51°58' E 004°08'510.1
2017-Nov-14 03:30N 51°60' E 003°60'612.7
2017-Nov-14 03:01N 52°02' E 003°50'5 9.2
2017-Nov-14 02:30N 52°04' E 003°43'613.1
2017-Nov-14 02:00N 52°06' E 003°34'714.4
2017-Nov-14 01:30N 52°10' E 003°23'714.3
2017-Nov-14 01:00N 52°15' E 003°15'510.6
2017-Nov-14 00:29N 52°20' E 003°13'713.0
2017-Nov-13 23:59N 52°26' E 003°18'612.9
2017-Nov-13 23:29N 52°32' E 003°23'612.7
2017-Nov-13 23:00N 52°36' E 003°29'612.1
2017-Nov-13 22:30N 52°41' E 003°35'612.4
2017-Nov-13 21:59N 52°46' E 003°42'  

Dump ship's entire track history